Time;durP1;ratioP1;P1;durP2;ratioP2;P2;SDS_P1;SDS_P2;PMS_P1;PMS_P2;Temp;Humidity;BMP_temperature;BMP_pressure;BME280_temperature;BME280_humidity;BME280_pressure;Samples;Min_cycle;Max_cycle;Signal;HPM_P1;HPM_P2
2021/05/13 00:00:10;;;;;;;3.48;1.70;;;;;;;15.85;42.07;99059.15;153983;1097;103163;-78
2021/05/13 00:03:17;;;;;;;6.37;1.80;;;;;;;15.80;42.19;99064.34;153913;1101;103208;-77
2021/05/13 00:06:21;;;;;;;3.40;1.60;;;;;;;15.74;41.94;99057.96;153877;1101;103209;-77
2021/05/13 00:09:24;;;;;;;5.80;1.50;;;;;;;15.67;41.88;99066.05;153944;1096;103113;-76
2021/05/13 00:12:38;;;;;;;6.50;1.47;;;;;;;15.60;42.36;99062.56;153930;1101;103193;-78
2021/05/13 00:15:43;;;;;;;2.95;1.35;;;;;;;15.58;41.94;99064.64;153943;1101;103132;-78
2021/05/13 00:18:46;;;;;;;1.83;1.50;;;;;;;15.56;42.12;99066.73;154004;1101;103202;-76
2021/05/13 00:21:50;;;;;;;2.67;1.50;;;;;;;15.51;42.12;99063.84;153919;1101;103220;-76
2021/05/13 00:24:53;;;;;;;2.10;1.10;;;;;;;15.43;42.29;99061.41;153961;1096;103125;-77
2021/05/13 00:27:57;;;;;;;5.00;1.45;;;;;;;15.41;42.19;99060.80;153891;1097;103231;-78
2021/05/13 00:31:01;;;;;;;1.95;1.30;;;;;;;15.37;42.40;99059.58;153946;1101;103202;-80
2021/05/13 00:34:06;;;;;;;5.60;1.20;;;;;;;15.33;42.29;99061.88;153939;1101;103153;-76
2021/05/13 00:37:09;;;;;;;4.65;1.48;;;;;;;15.32;42.33;99065.61;153887;1096;103570;-77
2021/05/13 00:40:15;;;;;;;12.08;2.20;;;;;;;15.26;42.84;99053.00;154053;1101;103135;-77
2021/05/13 00:43:19;;;;;;;2.25;1.58;;;;;;;15.24;42.47;99061.30;153927;1101;103193;-76
2021/05/13 00:46:23;;;;;;;3.88;1.30;;;;;;;15.21;42.66;99050.15;153941;1101;103212;-77
2021/05/13 00:49:27;;;;;;;3.45;1.30;;;;;;;15.17;42.66;99046.24;153934;1097;103228;-78
2021/05/13 00:52:33;;;;;;;2.73;1.90;;;;;;;15.12;43.01;99044.17;153929;1097;103212;-77
2021/05/13 00:55:38;;;;;;;5.75;1.63;;;;;;;15.05;43.02;99046.90;153990;1101;103106;-77
2021/05/13 00:58:45;;;;;;;2.18;1.50;;;;;;;14.99;43.22;99044.22;153981;1096;103270;-76
2021/05/13 01:01:49;;;;;;;4.00;1.40;;;;;;;14.95;43.19;99037.63;153995;1101;103212;-79
2021/05/13 01:04:52;;;;;;;2.20;1.60;;;;;;;14.90;43.19;99036.40;153914;1101;103199;-79
2021/05/13 01:07:58;;;;;;;2.95;1.50;;;;;;;14.85;43.31;99038.06;153924;1101;103117;-75
2021/05/13 01:11:02;;;;;;;4.13;1.50;;;;;;;14.82;43.37;99038.47;153999;1101;103208;-76
2021/05/13 01:14:15;;;;;;;2.65;1.38;;;;;;;14.79;43.46;99034.36;153913;1101;103264;-76
2021/05/13 01:17:22;;;;;;;3.05;1.60;;;;;;;14.74;43.51;99026.09;153966;1101;103234;-77
2021/05/13 01:20:27;;;;;;;3.15;1.70;;;;;;;14.70;43.96;99024.88;153947;1096;103219;-76
2021/05/13 01:23:31;;;;;;;4.87;1.50;;;;;;;14.68;43.70;99021.58;153911;1101;103134;-77
2021/05/13 01:26:35;;;;;;;3.60;1.60;;;;;;;14.64;43.98;99025.72;153689;1102;103177;-78
2021/05/13 01:29:44;;;;;;;3.30;1.53;;;;;;;14.59;43.85;99020.14;153938;1101;103295;-80
2021/05/13 01:32:48;;;;;;;2.58;1.33;;;;;;;14.53;43.82;99019.12;153936;1101;103134;-79
2021/05/13 01:35:52;;;;;;;6.73;1.90;;;;;;;14.45;43.97;99012.11;153691;1097;103779;-77
2021/05/13 01:38:58;;;;;;;5.58;2.10;;;;;;;14.41;44.08;99013.53;153932;1101;103130;-76
2021/05/13 01:42:02;;;;;;;2.90;2.30;;;;;;;14.33;44.19;99003.84;153900;1101;103120;-77
2021/05/13 01:45:08;;;;;;;5.20;1.98;;;;;;;14.26;44.25;99005.73;153902;1101;103298;-78
2021/05/13 01:48:11;;;;;;;5.47;2.00;;;;;;;14.21;44.45;99012.75;154002;1096;103133;-78
2021/05/13 01:51:15;;;;;;;2.67;1.67;;;;;;;14.11;44.63;99016.66;153959;1096;103189;-77
2021/05/13 01:54:19;;;;;;;4.53;1.67;;;;;;;14.07;44.78;99015.43;153942;1101;103161;-77
2021/05/13 01:57:22;;;;;;;4.23;1.75;;;;;;;14.02;44.51;99007.16;153962;1101;103238;-76
2021/05/13 02:00:27;;;;;;;5.55;2.85;;;;;;;14.02;44.91;99011.71;153918;1097;103209;-76
2021/05/13 02:03:31;;;;;;;2.93;1.90;;;;;;;13.96;44.82;98999.95;153981;1097;103207;-77
2021/05/13 02:06:34;;;;;;;3.20;1.83;;;;;;;13.91;45.32;99003.26;154032;1097;103144;-76
2021/05/13 02:09:38;;;;;;;3.48;2.00;;;;;;;13.87;45.05;99009.22;153921;1101;103146;-77
2021/05/13 02:12:42;;;;;;;4.53;1.90;;;;;;;13.83;45.15;98991.89;153912;1101;103206;-76
2021/05/13 02:15:46;;;;;;;2.53;1.90;;;;;;;13.78;45.36;98994.36;153932;1101;103647;-76
2021/05/13 02:18:49;;;;;;;4.85;2.08;;;;;;;13.72;45.29;98985.27;153997;1096;103166;-76
2021/05/13 02:21:53;;;;;;;2.45;2.00;;;;;;;13.69;45.75;98981.16;153881;1096;103203;-76
2021/05/13 02:24:57;;;;;;;2.30;1.80;;;;;;;13.66;45.32;98986.91;153902;1097;103197;-76
2021/05/13 02:28:01;;;;;;;4.78;2.08;;;;;;;13.63;45.41;98984.66;153936;1101;103205;-76
2021/05/13 02:31:04;;;;;;;2.60;1.70;;;;;;;13.59;45.60;98980.74;154041;1096;103269;-76
2021/05/13 02:34:08;;;;;;;4.27;1.87;;;;;;;13.53;45.80;98981.56;154044;1097;103153;-76
2021/05/13 02:37:12;;;;;;;3.30;2.00;;;;;;;13.50;46.08;98973.92;153734;1101;103314;-75
2021/05/13 02:40:18;;;;;;;2.83;1.90;;;;;;;13.44;45.78;98972.88;153964;1096;103206;-76
2021/05/13 02:43:22;;;;;;;3.27;2.00;;;;;;;13.38;46.08;98968.33;153995;1096;103573;-73
2021/05/13 02:46:26;;;;;;;2.68;1.80;;;;;;;13.33;46.21;98968.92;153954;1101;103216;-76
2021/05/13 02:49:30;;;;;;;2.20;1.90;;;;;;;13.31;45.90;98959.45;153986;1101;103145;-75
2021/05/13 02:52:34;;;;;;;3.00;1.90;;;;;;;13.28;46.12;98952.63;153924;1101;103220;-75
2021/05/13 02:55:37;;;;;;;6.33;2.20;;;;;;;13.27;46.64;98948.28;153944;1097;103275;-73
2021/05/13 02:58:42;;;;;;;3.60;1.90;;;;;;;13.25;46.62;98949.52;153941;1096;103155;-73
2021/05/13 03:01:46;;;;;;;4.15;2.00;;;;;;;13.21;46.34;98949.09;154097;1096;103330;-76
2021/05/13 03:04:50;;;;;;;4.10;2.03;;;;;;;13.20;46.84;98952.78;153963;1096;103105;-74
2021/05/13 03:07:55;;;;;;;2.00;1.80;;;;;;;13.19;46.40;98953.01;154070;1101;103135;-73
2021/05/13 03:10:59;;;;;;;2.83;1.70;;;;;;;13.18;46.66;98945.98;154092;1096;103157;-74
2021/05/13 03:14:04;;;;;;;3.93;1.83;;;;;;;13.16;46.55;98946.19;154068;1096;103201;-74
2021/05/13 03:17:07;;;;;;;3.85;1.85;;;;;;;13.16;46.98;98944.35;153974;1101;103224;-73
2021/05/13 03:20:15;;;;;;;3.90;1.83;;;;;;;13.16;47.03;98940.83;153971;1101;103123;-73
2021/05/13 03:23:24;;;;;;;4.13;1.98;;;;;;;13.16;47.22;98933.64;153950;1101;103140;-74
2021/05/13 03:26:37;;;;;;;2.13;1.80;;;;;;;13.19;47.44;98932.40;153905;1101;103149;-73
2021/05/13 03:29:41;;;;;;;3.30;2.00;;;;;;;13.22;47.04;98932.01;153963;1101;103134;-75
2021/05/13 03:32:44;;;;;;;3.28;2.00;;;;;;;13.21;46.95;98933.02;153993;1097;103240;-73
2021/05/13 03:35:48;;;;;;;4.27;1.90;;;;;;;13.20;47.34;98943.93;153937;1097;103250;-73
2021/05/13 03:38:51;;;;;;;2.65;2.00;;;;;;;13.21;47.87;98935.70;153912;1101;103174;-72
2021/05/13 03:41:56;;;;;;;3.75;2.18;;;;;;;13.32;47.23;98939.68;153882;1101;103165;-74
2021/05/13 03:44:59;;;;;;;4.43;2.55;;;;;;;13.49;47.60;98927.55;153908;1101;103075;-73
2021/05/13 03:48:03;;;;;;;3.63;2.23;;;;;;;13.68;47.15;98933.95;153919;1101;103248;-75
2021/05/13 03:51:07;;;;;;;4.10;2.40;;;;;;;13.88;47.15;98941.98;153908;1101;103209;-74
2021/05/13 03:54:11;;;;;;;4.57;2.30;;;;;;;14.06;47.38;98930.62;153921;1096;103202;-72
2021/05/13 03:57:14;;;;;;;3.13;2.50;;;;;;;14.20;47.32;98934.09;153662;1101;103165;-72
2021/05/13 04:00:26;;;;;;;3.40;1.88;;;;;;;14.44;47.01;98937.98;153997;1101;103134;-74
2021/05/13 04:03:30;;;;;;;3.60;1.98;;;;;;;14.68;47.16;98930.29;153767;1101;103564;-72
2021/05/13 04:06:33;;;;;;;2.50;2.00;;;;;;;14.86;47.06;98919.69;153937;1097;103125;-74
2021/05/13 04:09:37;;;;;;;2.65;2.00;;;;;;;15.04;46.95;98913.60;153930;1096;103656;-72
2021/05/13 04:12:41;;;;;;;3.25;2.20;;;;;;;15.22;46.83;98920.11;153948;1097;103254;-73
2021/05/13 04:15:46;;;;;;;4.60;3.00;;;;;;;15.38;46.65;98913.42;154023;1097;103208;-73
2021/05/13 04:18:50;;;;;;;5.45;2.20;;;;;;;15.52;46.32;98914.95;153924;1096;103489;-73
2021/05/13 04:21:54;;;;;;;3.08;2.30;;;;;;;15.64;46.25;98918.58;153954;1096;103238;-74
2021/05/13 04:24:57;;;;;;;2.98;2.30;;;;;;;15.78;46.36;98907.75;153907;1101;103230;-74
2021/05/13 04:28:01;;;;;;;3.03;2.10;;;;;;;15.96;46.11;98910.49;153924;1101;103163;-73
2021/05/13 04:31:04;;;;;;;4.80;2.30;;;;;;;16.11;46.01;98899.39;153935;1097;103206;-74
2021/05/13 04:34:08;;;;;;;3.30;2.20;;;;;;;16.21;46.16;98896.19;153911;1097;103262;-73
2021/05/13 04:37:12;;;;;;;2.33;1.93;;;;;;;16.31;45.93;98899.17;153960;1097;103330;-74
2021/05/13 04:40:16;;;;;;;3.15;2.20;;;;;;;16.42;45.88;98905.69;153941;1096;103135;-74
2021/05/13 04:43:20;;;;;;;2.63;1.90;;;;;;;16.54;45.51;98886.91;153923;1102;103196;-73
2021/05/13 04:46:26;;;;;;;4.53;2.30;;;;;;;16.61;45.89;98895.70;153932;1101;103135;-74
2021/05/13 04:49:29;;;;;;;4.00;2.20;;;;;;;16.73;45.56;98893.11;153906;1101;103196;-72
2021/05/13 04:52:33;;;;;;;5.28;2.23;;;;;;;16.77;45.51;98888.91;153913;1101;103224;-72
2021/05/13 04:55:38;;;;;;;4.63;2.10;;;;;;;16.84;45.04;98890.50;153918;1102;103128;-73
2021/05/13 04:58:42;;;;;;;2.65;2.00;;;;;;;16.96;45.50;98876.25;154022;1096;103148;-73
2021/05/13 05:01:45;;;;;;;2.38;1.93;;;;;;;17.04;45.39;98874.05;153987;1096;103128;-73
2021/05/13 05:04:49;;;;;;;4.13;2.40;;;;;;;17.20;44.93;98871.75;154042;1096;103203;-72
2021/05/13 05:07:53;;;;;;;3.83;2.27;;;;;;;17.31;44.92;98868.27;154052;1101;103125;-74
2021/05/13 05:10:56;;;;;;;4.17;2.30;;;;;;;17.36;44.54;98864.86;153931;1101;103224;-75
2021/05/13 05:14:00;;;;;;;5.83;2.30;;;;;;;17.36;44.74;98857.62;153924;1101;103133;-74
2021/05/13 05:17:04;;;;;;;5.40;2.60;;;;;;;17.39;44.51;98859.02;153982;1101;103155;-73
2021/05/13 05:20:09;;;;;;;4.03;2.50;;;;;;;17.40;44.46;98861.49;153838;1101;103208;-73
2021/05/13 05:23:13;;;;;;;3.03;2.43;;;;;;;17.44;44.37;98854.58;153774;1102;103566;-73
2021/05/13 05:26:17;;;;;;;4.38;2.73;;;;;;;17.48;44.18;98852.23;153791;1102;103203;-71
2021/05/13 05:29:21;;;;;;;4.18;2.60;;;;;;;17.43;44.13;98849.41;153796;1101;103199;-70
2021/05/13 05:32:24;;;;;;;7.70;2.53;;;;;;;17.44;44.30;98848.37;153836;1097;103203;-74
2021/05/13 05:35:28;;;;;;;5.47;2.47;;;;;;;17.45;44.23;98844.60;153776;1095;103222;-71
2021/05/13 05:38:31;;;;;;;4.28;2.48;;;;;;;17.47;44.07;98847.89;153906;1101;103134;-73
2021/05/13 05:41:35;;;;;;;2.95;2.30;;;;;;;17.48;44.23;98846.84;153906;1101;103227;-70
2021/05/13 05:44:38;;;;;;;5.10;2.60;;;;;;;17.52;44.31;98841.81;153685;1101;103192;-71
2021/05/13 05:47:42;;;;;;;3.75;2.40;;;;;;;17.58;44.24;98841.69;153761;1096;103203;-71
2021/05/13 05:50:46;;;;;;;4.10;2.38;;;;;;;17.65;44.08;98839.70;153852;1101;103564;-71
2021/05/13 05:53:49;;;;;;;3.25;2.48;;;;;;;17.70;43.70;98843.58;153968;1101;103134;-72
2021/05/13 05:56:53;;;;;;;6.18;2.73;;;;;;;17.68;43.95;98837.59;153927;1101;103210;-72
2021/05/13 05:59:58;;;;;;;4.43;2.70;;;;;;;17.66;43.73;98838.64;153768;1101;103149;-72
2021/05/13 06:03:01;;;;;;;4.90;2.58;;;;;;;17.58;43.85;98835.48;153851;1096;103304;-72
2021/05/13 06:06:05;;;;;;;4.03;2.63;;;;;;;17.64;43.83;98839.94;153645;1097;103211;-71
2021/05/13 06:09:10;;;;;;;5.05;2.80;;;;;;;17.58;43.68;98836.30;153756;1101;103225;-72
2021/05/13 06:12:14;;;;;;;3.53;2.77;;;;;;;17.60;43.59;98833.37;153827;1096;103132;-71
2021/05/13 06:15:19;;;;;;;4.60;2.63;;;;;;;17.56;43.69;98833.02;153946;1101;103153;-71
2021/05/13 06:18:22;;;;;;;4.30;2.67;;;;;;;17.56;43.83;98830.31;153858;1101;103477;-72
2021/05/13 06:21:27;;;;;;;5.27;2.87;;;;;;;17.57;43.88;98818.48;153877;1101;103309;-71
2021/05/13 06:24:30;;;;;;;5.37;3.00;;;;;;;17.52;43.65;98818.35;153869;1096;103200;-70
2021/05/13 06:27:34;;;;;;;5.40;2.87;;;;;;;17.44;43.37;98824.10;153825;1101;103131;-72
2021/05/13 06:30:39;;;;;;;5.33;3.10;;;;;;;17.39;43.64;98821.27;153962;1096;103210;-71
2021/05/13 06:33:42;;;;;;;6.70;2.97;;;;;;;17.42;43.41;98815.42;153869;1101;103196;-72
2021/05/13 06:36:46;;;;;;;5.20;2.88;;;;;;;17.42;43.51;98815.42;153925;1101;103276;-71
2021/05/13 06:39:49;;;;;;;6.78;2.95;;;;;;;17.48;43.53;98814.48;153978;1096;103109;-71
2021/05/13 06:42:53;;;;;;;7.33;2.77;;;;;;;17.52;43.40;98812.96;153901;1101;103231;-72
2021/05/13 06:45:56;;;;;;;4.80;3.00;;;;;;;17.54;43.51;98808.16;153929;1101;103160;-71
2021/05/13 06:49:00;;;;;;;5.33;2.95;;;;;;;17.61;43.85;98803.47;153967;1094;103201;-71
2021/05/13 06:52:04;;;;;;;6.25;2.85;;;;;;;17.69;43.78;98801.45;153922;1096;103228;-71
2021/05/13 06:55:09;;;;;;;6.98;2.85;;;;;;;17.72;43.17;98798.30;153809;1101;103208;-72
2021/05/13 06:58:13;;;;;;;3.13;2.60;;;;;;;17.74;43.45;98804.28;153766;1101;103135;-71
2021/05/13 07:01:16;;;;;;;6.98;2.83;;;;;;;17.79;43.13;98799.82;153829;1101;103228;-72
2021/05/13 07:04:20;;;;;;;4.03;2.70;;;;;;;17.85;43.53;98803.48;153939;1097;103134;-72
2021/05/13 07:07:24;;;;;;;4.00;2.75;;;;;;;17.97;43.43;98800.77;153784;1101;103316;-72
2021/05/13 07:10:27;;;;;;;5.53;3.07;;;;;;;18.05;43.42;98795.84;153993;1096;103131;-71
2021/05/13 07:13:31;;;;;;;4.25;2.65;;;;;;;18.11;43.16;98801.33;153950;1096;103057;-72
2021/05/13 07:16:34;;;;;;;3.55;2.78;;;;;;;18.15;43.22;98799.78;153945;1096;103120;-70
2021/05/13 07:19:38;;;;;;;4.97;2.90;;;;;;;18.17;42.97;98795.00;153915;1096;103137;-71
2021/05/13 07:22:42;;;;;;;4.78;3.00;;;;;;;18.24;43.24;98788.41;153934;1096;103352;-70
2021/05/13 07:25:47;;;;;;;5.45;2.80;;;;;;;18.29;43.11;98790.38;153619;1101;103278;-71
2021/05/13 07:28:51;;;;;;;4.87;2.67;;;;;;;18.30;43.14;98789.30;153955;1101;103199;-72
2021/05/13 07:31:54;;;;;;;6.13;2.88;;;;;;;18.36;42.97;98777.56;153778;1097;103144;-72
2021/05/13 07:34:58;;;;;;;3.50;2.58;;;;;;;18.42;42.49;98781.19;153949;1096;103304;-71
2021/05/13 07:38:02;;;;;;;6.00;2.40;;;;;;;18.43;42.99;98783.63;153896;1097;103229;-72
2021/05/13 07:41:30;;;;;;;6.30;2.40;;;;;;;18.48;42.68;98768.60;153947;1096;103137;-72
2021/05/13 07:44:34;;;;;;;4.23;2.38;;;;;;;18.56;43.06;98776.31;153796;1097;103219;-72
2021/05/13 07:47:38;;;;;;;3.47;2.60;;;;;;;18.67;42.75;98774.59;153938;1096;103201;-71
2021/05/13 07:50:42;;;;;;;4.15;2.50;;;;;;;18.71;42.25;98773.89;153967;1096;103128;-72
2021/05/13 07:53:46;;;;;;;4.95;2.48;;;;;;;18.74;42.41;98777.98;153879;1097;103301;-72
2021/05/13 07:56:49;;;;;;;3.47;2.30;;;;;;;18.85;42.08;98762.81;154000;1101;103196;-72
2021/05/13 07:59:53;;;;;;;3.23;1.90;;;;;;;18.93;42.51;98765.11;153752;1096;103205;-71
2021/05/13 08:02:57;;;;;;;5.07;2.40;;;;;;;19.01;42.07;98767.40;153578;1096;103604;-72
2021/05/13 08:06:00;;;;;;;4.05;2.00;;;;;;;19.07;42.25;98763.71;153902;1101;103128;-72
2021/05/13 08:09:05;;;;;;;5.17;2.43;;;;;;;19.13;42.20;98768.16;153691;1101;103307;-72
2021/05/13 08:12:10;;;;;;;5.35;2.10;;;;;;;19.20;42.11;98757.17;153822;1097;103261;-71
2021/05/13 08:15:15;;;;;;;2.80;2.23;;;;;;;19.23;41.76;98749.39;153695;1103;103212;-71
2021/05/13 08:18:19;;;;;;;5.13;2.00;;;;;;;19.28;41.49;98747.82;153766;1097;103157;-70
2021/05/13 08:21:22;;;;;;;2.97;1.70;;;;;;;19.33;41.53;98743.31;153615;1097;103135;-71
2021/05/13 08:24:26;;;;;;;4.95;1.80;;;;;;;19.43;41.66;98748.05;153624;1097;103305;-71
2021/05/13 08:27:31;;;;;;;3.27;1.77;;;;;;;19.51;40.99;98736.80;153858;1104;103137;-75
2021/05/13 08:30:35;;;;;;;4.03;2.00;;;;;;;19.53;41.19;98741.97;154363;1101;103202;-71
2021/05/13 08:33:38;;;;;;;6.10;1.77;;;;;;;19.59;41.08;98739.11;153949;1101;103129;-73
2021/05/13 08:36:42;;;;;;;3.03;1.60;;;;;;;19.66;41.21;98738.10;153936;1097;103131;-74
2021/05/13 08:39:45;;;;;;;2.10;1.57;;;;;;;19.70;41.17;98731.12;153913;1101;103209;-73
2021/05/13 08:42:50;;;;;;;3.43;1.90;;;;;;;19.71;40.69;98732.77;153950;1096;103139;-74
2021/05/13 08:45:56;;;;;;;2.48;1.50;;;;;;;19.74;40.66;98733.09;153867;1097;103134;-74
2021/05/13 08:48:59;;;;;;;4.15;2.13;;;;;;;19.78;40.36;98738.83;153651;1096;103158;-73
2021/05/13 08:52:08;;;;;;;2.17;1.60;;;;;;;19.83;40.66;98735.39;153586;1097;103148;-74
2021/05/13 08:55:13;;;;;;;4.50;1.95;;;;;;;19.83;40.40;98725.38;153623;1097;103203;-72
2021/05/13 08:58:16;;;;;;;5.05;1.90;;;;;;;19.84;40.49;98726.98;153682;1104;103228;-73
2021/05/13 09:01:22;;;;;;;2.75;1.80;;;;;;;19.88;40.28;98728.16;153694;1104;103135;-72
2021/05/13 09:04:36;;;;;;;2.73;1.60;;;;;;;19.91;40.54;98721.41;153765;1101;103152;-72
2021/05/13 09:07:40;;;;;;;3.20;1.60;;;;;;;19.93;39.93;98725.48;153653;1097;103132;-72
2021/05/13 09:10:43;;;;;;;2.95;1.60;;;;;;;19.99;40.17;98723.66;153632;1097;103266;-72
2021/05/13 09:14:00;;;;;;;5.33;2.00;;;;;;;20.05;40.27;98721.84;153745;1096;103212;-72
2021/05/13 09:17:03;;;;;;;3.57;1.87;;;;;;;20.10;40.12;98720.02;153727;1097;103137;-72
2021/05/13 09:20:24;;;;;;;2.50;1.77;;;;;;;20.14;39.47;98721.14;153621;1104;103157;-72
2021/05/13 09:23:30;;;;;;;4.28;1.95;;;;;;;20.12;39.83;98706.23;153650;1104;103138;-72
2021/05/13 09:26:34;;;;;;;3.57;1.60;;;;;;;20.15;39.53;98705.70;153662;1097;103666;-73
2021/05/13 09:29:38;;;;;;;5.50;1.80;;;;;;;20.16;39.03;98708.16;153731;1104;103171;-72
2021/05/13 09:32:43;;;;;;;2.63;1.70;;;;;;;20.18;39.65;98700.59;153611;1097;103230;-73
2021/05/13 09:35:46;;;;;;;4.60;1.90;;;;;;;20.21;38.60;98707.42;153652;1097;103205;-72
2021/05/13 09:38:50;;;;;;;3.40;1.55;;;;;;;20.19;38.69;98685.19;153748;1104;103199;-74
2021/05/13 09:42:01;;;;;;;3.47;2.00;;;;;;;20.17;38.87;98687.34;153732;1097;103374;-73
2021/05/13 09:45:08;;;;;;;4.43;1.65;;;;;;;20.21;39.09;98693.88;153618;1104;103250;-73
2021/05/13 09:48:12;;;;;;;2.40;1.50;;;;;;;20.25;39.26;98684.16;153635;1104;103203;-73
2021/05/13 09:51:24;;;;;;;2.28;1.65;;;;;;;20.28;38.83;98677.41;153593;1104;103155;-74
2021/05/13 09:54:27;;;;;;;5.28;1.58;;;;;;;20.28;38.71;98672.80;153681;1097;103123;-75
2021/05/13 09:57:31;;;;;;;2.87;1.50;;;;;;;20.33;38.26;98670.16;153571;1097;103538;-73
2021/05/13 10:00:47;;;;;;;3.23;1.30;;;;;;;20.38;38.54;98664.80;153632;1104;103251;-73
2021/05/13 10:03:54;;;;;;;5.00;1.30;;;;;;;20.46;37.82;98658.09;153654;1097;103529;-73
2021/05/13 10:06:58;;;;;;;3.78;1.23;;;;;;;20.54;38.23;98656.81;153685;1096;104134;-73
2021/05/13 10:10:02;;;;;;;3.73;1.40;;;;;;;20.61;38.12;98660.13;153630;1104;103163;-74
2021/05/13 10:13:07;;;;;;;2.68;1.40;;;;;;;20.67;37.77;98659.13;153576;1104;103230;-74
2021/05/13 10:16:11;;;;;;;4.10;1.20;;;;;;;20.67;37.35;98661.84;154146;1096;103208;-74
2021/05/13 10:19:22;;;;;;;3.95;1.20;;;;;;;20.69;37.33;98651.55;154010;1097;103149;-73
2021/05/13 10:22:26;;;;;;;2.58;1.38;;;;;;;20.75;37.64;98650.52;153717;1096;103205;-73
2021/05/13 10:25:33;;;;;;;3.33;1.00;;;;;;;20.83;36.81;98640.27;154073;1101;103115;-74
2021/05/13 10:28:37;;;;;;;4.50;1.10;;;;;;;20.81;36.98;98642.43;153956;1101;103286;-74
2021/05/13 10:31:40;;;;;;;1.77;1.20;;;;;;;20.84;37.01;98647.31;154000;1101;103129;-74
2021/05/13 10:34:57;;;;;;;14.97;1.33;;;;;;;20.87;37.30;98635.96;153964;1101;103154;-74
2021/05/13 10:38:05;;;;;;;4.37;1.30;;;;;;;20.87;36.53;98638.67;153977;1097;103109;-74
2021/05/13 10:41:40;;;;;;;3.25;1.30;;;;;;;;;;154013;1096;103147;-73
2021/05/13 10:44:43;;;;;;;2.43;1.00;;;;;;;20.93;36.09;98634.91;153647;1099;103291;-74
2021/05/13 10:48:18;;;;;;;2.90;1.00;;;;;;;20.94;36.70;98626.53;153619;1104;103297;-73
2021/05/13 10:51:26;;;;;;;2.48;0.90;;;;;;;20.97;35.82;98631.41;154038;1101;103147;-73
2021/05/13 10:54:45;;;;;;;2.87;0.90;;;;;;;20.98;36.42;98633.06;154069;1097;103232;-74
2021/05/13 10:57:51;;;;;;;2.83;1.17;;;;;;;20.99;36.22;98631.16;153769;1103;103188;-73
2021/05/13 11:01:15;;;;;;;3.10;1.27;;;;;;;21.03;36.24;98624.13;153704;1097;103363;-74
2021/05/13 11:04:42;;;;;;;3.30;1.33;;;;;;;21.10;36.52;98615.78;153813;1104;103156;-74
2021/05/13 11:07:46;;;;;;;2.05;1.00;;;;;;;21.16;36.70;98620.95;153659;1097;103146;-73
2021/05/13 11:11:00;;;;;;;4.27;0.90;;;;;;;21.17;35.78;98619.89;153634;1097;103493;-74
2021/05/13 11:14:12;;;;;;;2.93;1.20;;;;;;;21.18;35.63;98616.08;153862;1104;103203;-74
2021/05/13 11:17:16;;;;;;;2.40;1.00;;;;;;;21.24;35.68;98613.41;153673;1104;103222;-74
2021/05/13 11:20:21;;;;;;;4.37;1.00;;;;;;;21.30;35.40;98607.73;153920;1104;103151;-73
2021/05/13 11:23:28;;;;;;;2.80;1.23;;;;;;;21.34;35.46;98613.45;153630;1104;103205;-73
2021/05/13 11:26:31;;;;;;;1.75;1.10;;;;;;;21.35;35.17;98609.67;153659;1104;103140;-73
2021/05/13 11:50:45;;;;;;;4.07;1.10;;;;;;;21.32;34.28;98583.86;154354;1090;103239;-73
2021/05/13 11:53:49;;;;;;;2.85;1.10;;;;;;;21.36;34.77;98595.01;154027;1096;103252;-74
2021/05/13 11:56:54;;;;;;;3.67;1.20;;;;;;;21.44;34.65;98593.72;154012;1101;103230;-71
2021/05/13 11:59:57;;;;;;;2.73;1.40;;;;;;;21.46;34.70;98589.67;154019;1101;103556;-71
2021/05/13 12:03:12;;;;;;;5.63;1.40;;;;;;;21.52;34.92;98579.66;153949;1101;103181;-73
2021/05/13 12:06:16;;;;;;;2.53;1.30;;;;;;;21.60;34.58;98578.33;154093;1096;103190;-73
2021/05/13 12:09:22;;;;;;;2.30;1.30;;;;;;;21.58;34.59;98585.92;154038;1101;103140;-73
2021/05/13 12:12:26;;;;;;;1.60;1.10;;;;;;;21.47;34.81;98575.02;153991;1096;103211;-74
2021/05/13 12:15:29;;;;;;;2.40;1.00;;;;;;;21.44;34.25;98570.13;154041;1101;103120;-73
2021/05/13 12:18:34;;;;;;;3.33;1.00;;;;;;;21.43;33.99;98568.45;153955;1096;103238;-72
2021/05/13 12:21:40;;;;;;;1.90;1.20;;;;;;;21.47;34.06;98560.63;154089;1101;103136;-73
2021/05/13 12:24:45;;;;;;;1.00;0.90;;;;;;;21.49;34.03;98553.84;154082;1096;103151;-74
2021/05/13 12:27:49;;;;;;;2.30;1.00;;;;;;;21.53;33.99;98560.38;154066;1101;103209;-73
2021/05/13 12:30:53;;;;;;;1.70;1.00;;;;;;;21.58;34.10;98553.36;154010;1096;103183;-73
2021/05/13 12:33:58;;;;;;;2.70;1.00;;;;;;;21.62;33.81;98547.11;153958;1101;103295;-73
2021/05/13 13:36:42;;;;;;;;;;;;;;;21.65;32.37;98522.16;154122;1091;103211;-73
2021/05/13 13:39:44;;;;;;;;;;;;;;;21.55;32.29;98522.92;154082;1096;103203;-74
2021/05/13 13:42:47;;;;;;;2.80;1.13;;;;;;;21.45;32.31;98524.81;153963;1097;103214;-75
2021/05/13 13:45:50;;;;;;;3.60;1.00;;;;;;;21.44;32.46;98515.86;153985;1101;103104;-74
2021/05/13 13:48:53;;;;;;;3.33;0.90;;;;;;;21.49;32.33;98529.42;154009;1101;103173;-75
2021/05/13 13:51:56;;;;;;;2.40;1.00;;;;;;;21.58;32.27;98526.22;154046;1096;103145;-74
2021/05/13 13:54:58;;;;;;;3.40;1.43;;;;;;;21.63;33.10;98523.49;154393;1101;103115;-76
2021/05/13 13:58:02;;;;;;;1.90;1.00;;;;;;;21.73;32.64;98520.82;154078;1097;103123;-74
2021/05/13 14:01:05;;;;;;;2.90;1.20;;;;;;;21.85;32.60;98515.13;154026;1096;103227;-74
2021/05/13 14:04:07;;;;;;;2.43;1.60;;;;;;;21.92;32.75;98519.22;154017;1096;103136;-75
2021/05/13 14:07:10;;;;;;;5.57;2.13;;;;;;;21.97;32.67;98507.53;153992;1097;103243;-74
2021/05/13 14:10:15;;;;;;;2.67;1.20;;;;;;;22.03;32.12;98517.30;154018;1097;103102;-75
2021/05/13 14:13:18;;;;;;;1.30;1.10;;;;;;;22.03;32.75;98513.78;154035;1101;103336;-75
2021/05/13 14:16:23;;;;;;;1.20;1.10;;;;;;;22.07;32.61;98507.53;153994;1097;103211;-74
2021/05/13 14:19:26;;;;;;;2.37;1.10;;;;;;;22.08;32.48;98498.30;154041;1101;103243;-75
2021/05/13 14:22:28;;;;;;;2.03;1.23;;;;;;;22.08;32.27;98497.50;153986;1096;103266;-72
2021/05/13 14:25:31;;;;;;;1.77;1.10;;;;;;;21.94;32.31;98502.63;154165;1096;103224;-74
2021/05/13 14:28:35;;;;;;;2.95;1.00;;;;;;;21.81;32.46;98497.76;154030;1096;103173;-75
2021/05/13 14:31:37;;;;;;;2.50;1.20;;;;;;;21.69;32.23;98506.97;154004;1101;103121;-74
2021/05/13 14:34:41;;;;;;;3.03;1.70;;;;;;;21.62;32.48;98511.02;154094;1101;103118;-75
2021/05/13 14:37:44;;;;;;;4.53;3.13;;;;;;;21.53;32.57;98503.38;154034;1101;103210;-72
2021/05/13 14:40:47;;;;;;;2.73;1.70;;;;;;;21.49;32.69;98496.86;154041;1101;103133;-73
2021/05/13 14:43:50;;;;;;;2.17;1.40;;;;;;;21.43;32.24;98500.63;153977;1101;103103;-72
2021/05/13 14:46:53;;;;;;;6.53;4.47;;;;;;;21.48;32.93;98497.13;153924;1097;103267;-72
2021/05/13 14:49:56;;;;;;;5.43;4.30;;;;;;;21.61;32.89;98488.47;153984;1101;103125;-75
2021/05/13 14:52:59;;;;;;;2.30;1.70;;;;;;;21.73;32.68;98490.96;153978;1096;103250;-71
2021/05/13 14:56:02;;;;;;;1.93;1.20;;;;;;;21.91;32.51;98493.13;154116;1097;103106;-75
2021/05/13 14:59:07;;;;;;;2.13;1.10;;;;;;;22.05;32.14;98484.45;153976;1096;103139;-74
2021/05/13 15:02:12;;;;;;;2.73;1.10;;;;;;;22.18;31.92;98488.53;153972;1096;103157;-74
2021/05/13 15:05:16;;;;;;;2.20;1.10;;;;;;;22.22;31.81;98484.98;154001;1101;103139;-72
2021/05/13 15:08:19;;;;;;;2.13;1.00;;;;;;;22.24;31.81;98480.09;154086;1101;103385;-74
2021/05/13 15:11:22;;;;;;;1.50;1.00;;;;;;;22.26;31.73;98483.38;154151;1097;103195;-74
2021/05/13 15:14:24;;;;;;;2.47;1.00;;;;;;;22.28;31.77;98481.20;153939;1097;103195;-75
2021/05/13 15:17:27;;;;;;;1.63;1.00;;;;;;;22.27;31.93;98466.00;154022;1096;104424;-73
2021/05/13 15:20:32;;;;;;;1.75;1.40;;;;;;;22.28;31.95;98483.92;153950;1101;103214;-73
2021/05/13 15:23:35;;;;;;;3.40;1.23;;;;;;;22.26;31.65;98488.00;153992;1101;103220;-71
2021/05/13 15:26:38;;;;;;;5.10;1.63;;;;;;;22.25;31.79;98484.48;154122;1101;103190;-73
2021/05/13 15:29:41;;;;;;;2.35;1.20;;;;;;;22.19;31.63;98476.56;154058;1101;103191;-74
2021/05/13 15:32:44;;;;;;;1.80;1.10;;;;;;;22.17;31.56;98471.39;154107;1096;103230;-73